Flight Track Log - Related Links

Times and Time Zones

All times are in EDT time to prevent confusion due to time zone crossing. See the JBU370 flight status page for this flight to view local times or setup timezone preferences in your user account.

Time Position Orientation Groundspeed Altitude Reporting Facility
EDT Latitude Longitude Course Direction KTS MPH feet Rate Location/Type
Tue 06:14:15 AM 26.1013 -80.1401 229° Southwest  Level FlightAware Approximate
Tue 06:14:46 AM 26.0719 -80.1783 265° West 166 191 1,200  Level Miami Center
Tue 06:15:22 AM 26.0692 -80.2106 277° West 171 197 2,300 2,041 Climbing Miami Center
Tue 06:16:23 AM 26.0761 -80.2708 26° Northeast 217 250 4,500 2,213 Climbing Miami Center
Tue 06:17:24 AM 26.1331 -80.2400 80° East 292 336 6,800 2,678 Climbing Miami Center
Tue 06:18:24 AM 26.1478 -80.1433 74° East 311 358 9,900 2,182 Climbing Miami Center
Tue 06:19:25 AM 26.1731 -80.0422 74° East 365 420 11,200 1,822 Climbing Miami Center
Tue 06:20:39 AM 26.2117 -79.8928 76° East 410 472 14,000 1,925 Climbing Miami Center
Tue 06:21:39 AM 26.2369 -79.7822 75° East 416 479 15,500 1,750 Climbing Miami Center
Tue 06:22:39 AM 26.2689 -79.6508 54° Northeast 416 479 17,500 2,150 Climbing Miami Center
Tue 06:23:39 AM 26.3464 -79.5297 52° Northeast 427 491 19,800 1,950 Climbing Miami Center
Tue 06:24:39 AM 26.4150 -79.4317 23° Northeast 442 509 21,400 1,600 Climbing Miami Center
Tue 06:25:39 AM 26.5350 -79.3739 10° North 425 489 23,000 1,250 Climbing Miami Center
Tue 06:26:39 AM 26.6419 -79.3531 North 420 483 23,900 1,050 Climbing Miami Center
Tue 06:27:39 AM 26.7800 -79.3303 North 433 498 25,100 1,050 Climbing Miami Center
Tue 06:28:39 AM 26.8953 -79.3094 10° North 449 517 26,000 1,100 Climbing Miami Center
Tue 06:29:39 AM 27.0400 -79.2822 North 470 541 27,300 1,250 Climbing Miami Center
Tue 06:30:39 AM 27.1739 -79.2592 North 470 541 28,500 1,300 Climbing Miami Center
Tue 06:31:39 AM 27.3017 -79.2361 10° North 475 547 29,900 1,400 Climbing Miami Center
Tue 06:32:39 AM 27.4192 -79.2128 North 475 547 31,300 1,450 Climbing Miami Center
Tue 06:33:39 AM 27.5614 -79.1900 North 470 541 32,800 1,400 Climbing Miami Center
Tue 06:34:39 AM 27.6914 -79.1669 North 469 540 34,100 1,050 Climbing Miami Center
Tue 06:35:39 AM 27.8189 -79.1436 North 461 531 34,900 450 Climbing Miami Center
Tue 06:36:39 AM 27.9319 -79.1247 North 461 531 35,000 50 Climbing Miami Center
Tue 06:37:39 AM 28.0661 -79.1014 North 472 543 35,000  Level Miami Center
Tue 06:38:39 AM 28.2064 -79.0758 North 489 563 35,000  Level Miami Center
Tue 06:39:39 AM 28.3444 -79.0528 North 494 568 35,000  Level Miami Center
Tue 06:40:39 AM 28.4806 -79.0269 North 494 568 35,000  Level Miami Center
Tue 06:41:39 AM 28.6186 -79.0014 10° North 494 568 35,000  Level Miami Center
Tue 06:42:39 AM 28.7525 -78.9756 North 499 574 35,000  Level Miami Center
Tue 06:43:39 AM 28.8906 -78.9519 10° North 499 574 35,000 -50 Level Miami Center
Tue 06:44:39 AM 29.0244 -78.9236 North 491 565 34,900  Descending Miami Center
Tue 06:45:39 AM 29.1625 -78.9003 North 498 573 35,000 50 Climbing Miami Center
Tue 06:46:39 AM 29.3047 -78.8742 North 503 579 35,000  Level Miami Center
Tue 06:47:39 AM 29.4408 -78.8481 North 500 575 35,000  Level Miami Center
Tue 06:48:39 AM 29.5808 -78.8244 North 500 575 35,000  Level Miami Center
Tue 06:49:39 AM 29.7189 -78.8006 North 500 575 35,000  Level Miami Center
Tue 06:50:39 AM 29.8589 -78.7744 11° North 506 582 35,000  Level Miami Center
Tue 06:52:33 AM 30.1311 -78.7117 North 495 570 35,000  Level Jacksonville Center
Tue 06:53:33 AM 30.2475 -78.6922 10° North 506 582 35,000  Level Jacksonville Center
Tue 06:54:33 AM 30.3906 -78.6642 10° North 496 571 35,000  Level Jacksonville Center
Tue 06:55:33 AM 30.5211 -78.6367 North 498 573 35,000  Level Jacksonville Center
Tue 06:56:33 AM 30.6664 -78.6108 10° North 498 573 35,000  Level Jacksonville Center
Tue 06:57:33 AM 30.8011 -78.5831 10° North 504 580 35,000 50 Level Jacksonville Center
Tue 06:58:33 AM 30.9461 -78.5547 North 504 580 35,100  Climbing Jacksonville Center
Tue 06:59:33 AM 31.1000 -78.5306 10° North 544 626 35,000 -50 Descending Jacksonville Center
Tue 07:00:33 AM 31.2428 -78.4997 10° North 526 605 35,000  Level Jacksonville Center
Tue 07:01:33 AM 31.3839 -78.4711 10° North 514 592 35,000  Level Jacksonville Center
Tue 07:02:33 AM 31.5247 -78.4425 North 508 585 35,000 500 Level Jacksonville Center
Tue 07:03:33 AM 31.6639 -78.4189 10° North 503 579 36,000 900 Climbing Jacksonville Center
Tue 07:04:33 AM 31.7944 -78.3928 North 498 573 36,800 500 Climbing Jacksonville Center
Tue 07:05:33 AM 31.9292 -78.3667 North 493 567 37,000 100 Climbing Jacksonville Center
Tue 07:06:33 AM 32.0597 -78.3431 10° North 487 560 37,000  Level Jacksonville Center
Tue 07:07:33 AM 32.1944 -78.3144 10° North 482 555 37,000  Level Jacksonville Center
Tue 07:08:33 AM 32.3292 -78.2856 North 487 560 37,000  Level Jacksonville Center
Tue 07:09:33 AM 32.4639 -78.2639 10° North 482 555 37,000  Level Jacksonville Center
Tue 07:10:33 AM 32.6028 -78.2347 North 487 560 37,000  Level Jacksonville Center
Tue 07:11:33 AM 32.7394 -78.2103 10° North 492 566 37,000  Level Jacksonville Center
Tue 07:12:33 AM 32.8783 -78.1808 North 497 572 37,000  Level Jacksonville Center
Tue 07:13:33 AM 33.0150 -78.1539 10° North 502 578 37,000  Level Jacksonville Center
Tue 07:15:49 AM 33.3217 -78.0914 10° North 504 580 37,000  Level Washington Center
Tue 07:16:47 AM 33.4600 -78.0608 10° North 504 580 37,000  Level Washington Center
Tue 07:17:47 AM 33.6003 -78.0325 10° North 504 580 37,000  Level Washington Center
Tue 07:18:47 AM 33.7367 -78.0042 10° North 504 580 37,000  Level Washington Center
Tue 07:19:49 AM 33.8769 -77.9756 11° North 504 580 37,000  Level Washington Center
Tue 07:20:47 AM 34.0300 -77.9400 North 504 580 37,000  Level Washington Center
Tue 07:21:48 AM 34.1661 -77.9136 North 504 580 37,000  Level Washington Center
Tue 07:22:49 AM 34.3083 -77.8875 North 504 580 37,000  Level Washington Center
Tue 07:23:49 AM 34.4444 -77.8661 North 504 580 37,000  Level Washington Center
Tue 07:24:47 AM 34.5822 -77.8547 North 499 574 37,000  Level Washington Center
Tue 07:25:48 AM 34.7203 -77.8383 North 499 574 37,000  Level Washington Center
Tue 07:26:49 AM 34.8583 -77.8244 North 499 574 37,000  Level Washington Center
Tue 07:27:47 AM 34.9942 -77.8106 North 499 574 37,000  Level Washington Center
Tue 07:28:49 AM 35.1300 -77.7939 North 499 574 37,000  Level Washington Center
Tue 07:29:47 AM 35.2703 -77.7772 North 499 574 37,000  Level Washington Center
Tue 07:30:48 AM 35.4061 -77.7633 North 494 568 37,000  Level Washington Center
Tue 07:31:49 AM 35.5442 -77.7492 North 499 574 37,000  Level Washington Center
Tue 07:32:47 AM 35.6819 -77.7350 North 499 574 37,000  Level Washington Center
Tue 07:33:47 AM 35.8033 -77.7228 North 494 568 37,000  Level Washington Center
Tue 07:34:49 AM 35.9433 -77.7061 14° North 494 568 37,000  Level Washington Center
Tue 07:35:47 AM 36.0797 -77.6633 19° North 499 574 37,000  Level Washington Center
Tue 07:36:47 AM 36.2122 -77.6078 20° North 494 568 37,000  Level Washington Center
Tue 07:37:48 AM 36.3425 -77.5492 20° North 502 578 37,000  Level Washington Center
Tue 07:38:48 AM 36.4686 -77.4931 18° North 502 578 37,000  Level Washington Center
Tue 07:39:48 AM 36.6008 -77.4392 20° North 495 570 37,000  Level Washington Center
Tue 07:40:49 AM 36.7289 -77.3800 19° North 489 563 37,000  Level Washington Center
Tue 07:41:49 AM 36.8614 -77.3233 19° North 495 570 37,000  Level Washington Center
Tue 07:42:46 AM 36.9914 -77.2664 20° North 490 564 37,000  Level Washington Center
Tue 07:43:47 AM 37.1217 -77.2069 19° North 490 564 37,000  Level Washington Center
Tue 07:44:49 AM 37.2683 -77.1447 26° Northeast 498 573 37,000  Level Washington Center
Tue 07:45:49 AM 37.3903 -77.0686 29° Northeast 491 565 37,000  Level Washington Center
Tue 07:46:47 AM 37.4892 -77.0000 31° Northeast 496 571 37,000  Level Washington Center
Tue 07:47:47 AM 37.6344 -76.8897 31° Northeast 501 577 37,000  Level Washington Center
Tue 07:48:49 AM 37.7542 -76.8000 30° Northeast 501 577 37,000  Level Washington Center
Tue 07:49:49 AM 37.8739 -76.7125 31° Northeast 496 571 37,000  Level Washington Center
Tue 07:50:46 AM 37.9936 -76.6219 30° Northeast 496 571 37,000  Level Washington Center
Tue 07:51:47 AM 38.1153 -76.5314 32° Northeast 496 571 37,000  Level Washington Center
Tue 07:52:47 AM 38.2244 -76.4456 32° Northeast 502 578 37,000  Level Washington Center
Tue 07:53:49 AM 38.3439 -76.3489 36° Northeast 502 578 37,000  Level Washington Center
Tue 07:54:46 AM 38.4569 -76.2439 35° Northeast 502 578 37,000  Level Washington Center
Tue 07:55:47 AM 38.5847 -76.1281 36° Northeast 502 578 37,000 -900 Level Washington Center
Tue 07:56:46 AM 38.6958 -76.0253 36° Northeast 502 578 35,200 -2,650 Descending Washington Center
Tue 07:57:47 AM 38.8086 -75.9192 36° Northeast 502 578 31,700 -3,317 Descending Washington Center
Tue 07:58:49 AM 38.9153 -75.8183 36° Northeast 490 564 28,400 -2,400 Descending Washington Center
Tue 07:59:47 AM 39.0153 -75.7253 35° Northeast 468 539 26,900 -1,613 Descending Washington Center
Tue 08:00:48 AM 39.1175 -75.6317 38° Northeast 458 527 25,200 -1,339 Descending Washington Center
Tue 08:01:48 AM 39.2114 -75.5381 35° Northeast 446 513 24,200 -1,140 Descending Washington Center
Tue 08:02:49 AM 39.3050 -75.4547 35° Northeast 423 487 22,900 -1,388 Descending Washington Center
Tue 08:03:49 AM 39.3986 -75.3714 35° Northeast 413 475 21,400 -1,487 Descending Washington Center
Tue 08:04:46 AM 39.4922 -75.2850 35° Northeast 413 475 20,000 -1,462 Descending Washington Center
Tue 08:05:48 AM 39.5858 -75.2011 36° Northeast 413 475 18,500 -1,426 Descending Washington Center
Tue 08:06:48 AM 39.6772 -75.1144 33° Northeast 413 475 17,100 -1,388 Descending Washington Center
Tue 08:07:49 AM 39.7622 -75.0436 33° Northeast 406 467 15,700 -1,462 Descending Washington Center
Tue 08:08:47 AM 39.8639 -74.9561 42° Northeast 401 461 14,200 -1,445 Descending Washington Center
Tue 08:10:06 AM 39.9667 -74.8333 44° Northeast 357 411 12,400 -1,295 Descending New York TRACON
Tue 08:11:06 AM 40.0333 -74.7500 52° Northeast 333 383 11,200 -1,150 Descending New York TRACON
Tue 08:12:06 AM 40.0833 -74.6667 52° Northeast 314 361 10,100 -632 Descending New York TRACON
Tue 08:13:00 AM 40.1333 -74.5833 44° Northeast 312 359 10,000 -50 Descending New York TRACON
Tue 08:14:06 AM 40.2000 -74.5000 44° Northeast 315 362 10,000 -150 Level New York TRACON
Tue 08:15:00 AM 40.2667 -74.4167 37° Northeast 318 366 9,700 -895 Descending New York TRACON
Tue 08:16:00 AM 40.3333 -74.3500 37° Northeast 301 346 8,300 -1,339 Descending New York TRACON
Tue 08:17:01 AM 40.4000 -74.2833 37° Northeast 297 342 7,000 -650 Descending New York TRACON
Tue 08:18:00 AM 40.4667 -74.2167 45° Northeast 300 345 7,000 -252 Level New York TRACON
Tue 08:19:00 AM 40.5167 -74.1500 37° Northeast 298 343 6,500 -947 Descending New York TRACON
Tue 08:19:54 AM 40.5833 -74.0833 37° Northeast 297 342 5,200 -1,250 Descending New York TRACON
Tue 08:21:00 AM 40.6500 -74.0167 52° Northeast 280 322 4,000 -571 Descending New York TRACON
Tue 08:22:00 AM 40.7000 -73.9333 62° Northeast 293 337 4,000  Level New York TRACON
Tue 08:23:00 AM 40.7333 -73.8500 37° Northeast 292 336 4,000 -143 Level New York TRACON
Tue 08:24:06 AM 40.8000 -73.7833 37° Northeast 245 282 3,700 -600 Descending New York TRACON
Tue 08:25:00 AM 40.8500 -73.7333 311° West 240 276 2,800 -1,105 Descending New York TRACON
Tue 08:26:00 AM 40.8833 -73.7833 217° Southwest 198 228 1,600 -700 Descending New York TRACON
Tue 08:27:00 AM 40.8500 -73.8167 217° Southwest 165 190 1,400 -200 Descending New York TRACON

Login

Don't have an account? Register now (free) for customized features, flight alerts, and more!